sensor_id;sensor_type;location;lat;lon;timestamp;P1;durP1;ratioP1;P2;durP2;ratioP2
8092;SDS011;4089;52.420;13.334;2023-08-20T00:01:08;39.67;;;15.70;;
8092;SDS011;4089;52.420;13.334;2023-08-20T00:03:40;43.23;;;15.83;;
8092;SDS011;4089;52.420;13.334;2023-08-20T00:06:08;43.50;;;15.70;;
8092;SDS011;4089;52.420;13.334;2023-08-20T00:08:35;41.43;;;16.03;;
8092;SDS011;4089;52.420;13.334;2023-08-20T00:11:02;46.77;;;18.40;;
8092;SDS011;4089;52.420;13.334;2023-08-20T00:13:31;43.10;;;17.80;;
8092;SDS011;4089;52.420;13.334;2023-08-20T00:15:58;41.67;;;17.10;;
8092;SDS011;4089;52.420;13.334;2023-08-20T00:18:26;42.93;;;16.63;;
8092;SDS011;4089;52.420;13.334;2023-08-20T00:20:53;41.43;;;15.73;;
8092;SDS011;4089;52.420;13.334;2023-08-20T00:23:21;43.40;;;16.70;;
8092;SDS011;4089;52.420;13.334;2023-08-20T00:25:48;41.70;;;16.13;;
8092;SDS011;4089;52.420;13.334;2023-08-20T00:28:15;41.50;;;16.37;;
8092;SDS011;4089;52.420;13.334;2023-08-20T00:30:42;43.07;;;17.03;;
8092;SDS011;4089;52.420;13.334;2023-08-20T00:33:09;46.77;;;17.87;;
8092;SDS011;4089;52.420;13.334;2023-08-20T00:35:36;52.73;;;18.13;;
8092;SDS011;4089;52.420;13.334;2023-08-20T00:38:03;43.63;;;17.10;;
8092;SDS011;4089;52.420;13.334;2023-08-20T00:40:30;44.40;;;16.50;;
8092;SDS011;4089;52.420;13.334;2023-08-20T00:42:57;45.23;;;16.80;;
8092;SDS011;4089;52.420;13.334;2023-08-20T00:45:24;45.57;;;17.07;;
8092;SDS011;4089;52.420;13.334;2023-08-20T00:47:52;43.70;;;17.73;;
8092;SDS011;4089;52.420;13.334;2023-08-20T00:50:19;45.60;;;18.23;;
8092;SDS011;4089;52.420;13.334;2023-08-20T00:52:47;49.70;;;17.10;;
8092;SDS011;4089;52.420;13.334;2023-08-20T00:55:14;43.83;;;17.70;;
8092;SDS011;4089;52.420;13.334;2023-08-20T00:57:41;45.27;;;16.77;;
8092;SDS011;4089;52.420;13.334;2023-08-20T01:00:08;42.70;;;15.50;;
8092;SDS011;4089;52.420;13.334;2023-08-20T01:02:38;42.20;;;16.17;;
8092;SDS011;4089;52.420;13.334;2023-08-20T01:05:09;42.67;;;16.03;;
8092;SDS011;4089;52.420;13.334;2023-08-20T01:13:05;47.50;;;15.83;;
8092;SDS011;4089;52.420;13.334;2023-08-20T01:15:33;43.43;;;15.40;;
8092;SDS011;4089;52.420;13.334;2023-08-20T01:18:01;43.43;;;15.37;;
8092;SDS011;4089;52.420;13.334;2023-08-20T01:20:30;47.60;;;15.37;;
8092;SDS011;4089;52.420;13.334;2023-08-20T01:23:14;45.70;;;15.00;;
8092;SDS011;4089;52.420;13.334;2023-08-20T01:28:47;41.10;;;13.63;;
8092;SDS011;4089;52.420;13.334;2023-08-20T01:31:14;46.40;;;15.00;;
8092;SDS011;4089;52.420;13.334;2023-08-20T01:33:42;42.07;;;13.63;;
8092;SDS011;4089;52.420;13.334;2023-08-20T01:36:09;39.70;;;12.70;;
8092;SDS011;4089;52.420;13.334;2023-08-20T01:38:36;42.93;;;13.63;;
8092;SDS011;4089;52.420;13.334;2023-08-20T01:41:03;40.23;;;13.30;;
8092;SDS011;4089;52.420;13.334;2023-08-20T01:43:31;47.07;;;13.43;;
8092;SDS011;4089;52.420;13.334;2023-08-20T01:45:58;41.23;;;12.73;;
8092;SDS011;4089;52.420;13.334;2023-08-20T01:48:24;38.97;;;11.40;;
8092;SDS011;4089;52.420;13.334;2023-08-20T01:50:51;42.73;;;12.37;;
8092;SDS011;4089;52.420;13.334;2023-08-20T01:53:18;43.40;;;12.63;;
8092;SDS011;4089;52.420;13.334;2023-08-20T01:55:46;42.97;;;12.13;;
8092;SDS011;4089;52.420;13.334;2023-08-20T01:58:13;43.03;;;13.10;;
8092;SDS011;4089;52.420;13.334;2023-08-20T02:00:41;41.53;;;12.67;;
8092;SDS011;4089;52.420;13.334;2023-08-20T02:03:08;39.57;;;12.73;;
8092;SDS011;4089;52.420;13.334;2023-08-20T02:05:36;40.27;;;12.60;;
8092;SDS011;4089;52.420;13.334;2023-08-20T02:08:04;46.10;;;13.47;;
8092;SDS011;4089;52.420;13.334;2023-08-20T02:10:31;43.93;;;12.47;;
8092;SDS011;4089;52.420;13.334;2023-08-20T02:12:58;44.70;;;12.13;;
8092;SDS011;4089;52.420;13.334;2023-08-20T02:15:25;41.33;;;11.40;;
8092;SDS011;4089;52.420;13.334;2023-08-20T02:17:52;40.00;;;12.00;;
8092;SDS011;4089;52.420;13.334;2023-08-20T02:20:19;41.97;;;12.27;;
8092;SDS011;4089;52.420;13.334;2023-08-20T02:22:46;39.83;;;12.13;;
8092;SDS011;4089;52.420;13.334;2023-08-20T02:25:13;44.40;;;11.90;;
8092;SDS011;4089;52.420;13.334;2023-08-20T02:27:39;40.57;;;11.60;;
8092;SDS011;4089;52.420;13.334;2023-08-20T02:30:06;43.60;;;12.20;;
8092;SDS011;4089;52.420;13.334;2023-08-20T02:32:34;42.53;;;11.90;;
8092;SDS011;4089;52.420;13.334;2023-08-20T02:35:01;41.33;;;12.53;;
8092;SDS011;4089;52.420;13.334;2023-08-20T02:37:32;40.00;;;11.63;;
8092;SDS011;4089;52.420;13.334;2023-08-20T02:39:59;40.53;;;12.50;;
8092;SDS011;4089;52.420;13.334;2023-08-20T02:42:26;46.47;;;12.17;;
8092;SDS011;4089;52.420;13.334;2023-08-20T02:44:53;37.30;;;11.13;;
8092;SDS011;4089;52.420;13.334;2023-08-20T02:47:19;42.60;;;11.70;;
8092;SDS011;4089;52.420;13.334;2023-08-20T02:49:46;39.70;;;10.77;;
8092;SDS011;4089;52.420;13.334;2023-08-20T02:52:13;42.53;;;11.83;;
8092;SDS011;4089;52.420;13.334;2023-08-20T02:54:40;47.07;;;12.27;;
8092;SDS011;4089;52.420;13.334;2023-08-20T02:57:07;40.43;;;11.33;;
8092;SDS011;4089;52.420;13.334;2023-08-20T02:59:34;40.83;;;11.53;;
8092;SDS011;4089;52.420;13.334;2023-08-20T03:02:00;39.50;;;11.40;;
8092;SDS011;4089;52.420;13.334;2023-08-20T03:04:29;47.10;;;12.43;;
8092;SDS011;4089;52.420;13.334;2023-08-20T03:06:56;41.47;;;12.10;;
8092;SDS011;4089;52.420;13.334;2023-08-20T03:09:23;42.73;;;11.23;;
8092;SDS011;4089;52.420;13.334;2023-08-20T03:11:50;41.00;;;12.90;;
8092;SDS011;4089;52.420;13.334;2023-08-20T03:14:16;42.90;;;12.50;;
8092;SDS011;4089;52.420;13.334;2023-08-20T03:16:43;41.30;;;12.47;;
8092;SDS011;4089;52.420;13.334;2023-08-20T03:19:10;43.90;;;12.70;;
8092;SDS011;4089;52.420;13.334;2023-08-20T03:21:37;42.07;;;13.23;;
8092;SDS011;4089;52.420;13.334;2023-08-20T03:24:04;41.10;;;12.50;;
8092;SDS011;4089;52.420;13.334;2023-08-20T03:26:31;41.63;;;12.30;;
8092;SDS011;4089;52.420;13.334;2023-08-20T03:28:58;40.77;;;13.17;;
8092;SDS011;4089;52.420;13.334;2023-08-20T03:31:25;44.47;;;13.70;;
8092;SDS011;4089;52.420;13.334;2023-08-20T03:33:52;42.07;;;12.77;;
8092;SDS011;4089;52.420;13.334;2023-08-20T03:36:19;45.03;;;13.40;;
8092;SDS011;4089;52.420;13.334;2023-08-20T03:38:46;45.20;;;13.57;;
8092;SDS011;4089;52.420;13.334;2023-08-20T03:41:13;48.10;;;14.37;;
8092;SDS011;4089;52.420;13.334;2023-08-20T03:43:40;45.37;;;13.53;;
8092;SDS011;4089;52.420;13.334;2023-08-20T03:46:07;46.17;;;13.60;;
8092;SDS011;4089;52.420;13.334;2023-08-20T03:48:34;48.43;;;14.30;;
8092;SDS011;4089;52.420;13.334;2023-08-20T03:51:01;43.97;;;13.97;;
8092;SDS011;4089;52.420;13.334;2023-08-20T03:53:27;43.10;;;14.03;;
8092;SDS011;4089;52.420;13.334;2023-08-20T03:55:54;48.07;;;14.37;;
8092;SDS011;4089;52.420;13.334;2023-08-20T03:58:21;43.83;;;13.50;;
8092;SDS011;4089;52.420;13.334;2023-08-20T04:00:48;48.27;;;14.53;;
8092;SDS011;4089;52.420;13.334;2023-08-20T04:03:15;42.93;;;14.23;;
8092;SDS011;4089;52.420;13.334;2023-08-20T04:05:45;44.87;;;14.67;;
8092;SDS011;4089;52.420;13.334;2023-08-20T04:08:12;47.87;;;13.40;;
8092;SDS011;4089;52.420;13.334;2023-08-20T04:10:43;44.17;;;13.87;;
8092;SDS011;4089;52.420;13.334;2023-08-20T04:13:12;48.77;;;14.87;;
8092;SDS011;4089;52.420;13.334;2023-08-20T04:15:40;47.17;;;14.60;;
8092;SDS011;4089;52.420;13.334;2023-08-20T04:18:07;50.63;;;14.40;;
8092;SDS011;4089;52.420;13.334;2023-08-20T04:20:36;51.70;;;15.37;;
8092;SDS011;4089;52.420;13.334;2023-08-20T04:23:03;49.90;;;14.63;;
8092;SDS011;4089;52.420;13.334;2023-08-20T04:25:30;44.87;;;15.03;;
8092;SDS011;4089;52.420;13.334;2023-08-20T04:27:57;45.03;;;15.47;;
8092;SDS011;4089;52.420;13.334;2023-08-20T04:30:23;44.57;;;15.23;;
8092;SDS011;4089;52.420;13.334;2023-08-20T04:32:50;45.40;;;14.60;;
8092;SDS011;4089;52.420;13.334;2023-08-20T04:35:17;46.73;;;14.93;;
8092;SDS011;4089;52.420;13.334;2023-08-20T04:37:44;49.27;;;15.90;;
8092;SDS011;4089;52.420;13.334;2023-08-20T04:40:11;45.80;;;15.03;;
8092;SDS011;4089;52.420;13.334;2023-08-20T04:42:40;54.77;;;16.67;;
8092;SDS011;4089;52.420;13.334;2023-08-20T04:45:06;46.37;;;15.27;;
8092;SDS011;4089;52.420;13.334;2023-08-20T04:47:34;44.13;;;14.17;;
8092;SDS011;4089;52.420;13.334;2023-08-20T04:50:01;46.47;;;16.40;;
8092;SDS011;4089;52.420;13.334;2023-08-20T04:52:29;49.97;;;15.90;;
8092;SDS011;4089;52.420;13.334;2023-08-20T04:54:55;47.23;;;16.97;;
8092;SDS011;4089;52.420;13.334;2023-08-20T04:57:22;47.77;;;17.30;;
8092;SDS011;4089;52.420;13.334;2023-08-20T04:59:49;58.97;;;18.13;;
8092;SDS011;4089;52.420;13.334;2023-08-20T05:02:16;47.13;;;17.40;;
8092;SDS011;4089;52.420;13.334;2023-08-20T05:04:43;50.33;;;18.83;;
8092;SDS011;4089;52.420;13.334;2023-08-20T05:07:10;49.47;;;18.10;;
8092;SDS011;4089;52.420;13.334;2023-08-20T05:09:37;47.20;;;16.93;;
8092;SDS011;4089;52.420;13.334;2023-08-20T05:12:03;51.37;;;18.67;;
8092;SDS011;4089;52.420;13.334;2023-08-20T05:14:30;50.70;;;19.03;;
8092;SDS011;4089;52.420;13.334;2023-08-20T05:16:57;53.37;;;19.30;;
8092;SDS011;4089;52.420;13.334;2023-08-20T05:19:24;45.47;;;16.70;;
8092;SDS011;4089;52.420;13.334;2023-08-20T05:21:52;53.43;;;18.57;;
8092;SDS011;4089;52.420;13.334;2023-08-20T05:24:22;55.10;;;19.80;;
8092;SDS011;4089;52.420;13.334;2023-08-20T05:27:05;48.87;;;16.73;;
8092;SDS011;4089;52.420;13.334;2023-08-20T05:29:40;46.20;;;17.07;;
8092;SDS011;4089;52.420;13.334;2023-08-20T05:32:07;48.40;;;18.70;;
8092;SDS011;4089;52.420;13.334;2023-08-20T05:34:34;50.30;;;19.40;;
8092;SDS011;4089;52.420;13.334;2023-08-20T05:37:02;48.50;;;17.40;;
8092;SDS011;4089;52.420;13.334;2023-08-20T05:39:30;50.33;;;17.80;;
8092;SDS011;4089;52.420;13.334;2023-08-20T05:41:57;46.27;;;17.30;;
8092;SDS011;4089;52.420;13.334;2023-08-20T05:44:23;49.00;;;19.07;;
8092;SDS011;4089;52.420;13.334;2023-08-20T05:46:50;48.30;;;17.70;;
8092;SDS011;4089;52.420;13.334;2023-08-20T05:49:17;52.73;;;19.37;;
8092;SDS011;4089;52.420;13.334;2023-08-20T05:51:44;48.87;;;18.17;;
8092;SDS011;4089;52.420;13.334;2023-08-20T05:54:11;55.50;;;17.63;;
8092;SDS011;4089;52.420;13.334;2023-08-20T05:56:38;49.77;;;17.97;;
8092;SDS011;4089;52.420;13.334;2023-08-20T05:59:05;46.00;;;17.60;;
8092;SDS011;4089;52.420;13.334;2023-08-20T06:01:32;49.00;;;15.83;;
8092;SDS011;4089;52.420;13.334;2023-08-20T06:03:59;52.13;;;16.90;;
8092;SDS011;4089;52.420;13.334;2023-08-20T06:06:26;50.43;;;18.47;;
8092;SDS011;4089;52.420;13.334;2023-08-20T06:08:53;48.83;;;17.70;;
8092;SDS011;4089;52.420;13.334;2023-08-20T06:11:34;48.07;;;16.30;;
8092;SDS011;4089;52.420;13.334;2023-08-20T06:14:00;48.77;;;16.60;;
8092;SDS011;4089;52.420;13.334;2023-08-20T06:16:27;45.90;;;17.10;;
8092;SDS011;4089;52.420;13.334;2023-08-20T06:18:54;45.93;;;14.90;;
8092;SDS011;4089;52.420;13.334;2023-08-20T06:21:22;44.73;;;14.00;;
8092;SDS011;4089;52.420;13.334;2023-08-20T06:23:49;43.97;;;14.30;;
8092;SDS011;4089;52.420;13.334;2023-08-20T06:26:16;42.60;;;14.33;;
8092;SDS011;4089;52.420;13.334;2023-08-20T06:28:42;43.77;;;14.50;;
8092;SDS011;4089;52.420;13.334;2023-08-20T06:31:09;47.23;;;14.97;;
8092;SDS011;4089;52.420;13.334;2023-08-20T06:33:36;45.13;;;12.60;;
8092;SDS011;4089;52.420;13.334;2023-08-20T06:36:03;43.10;;;13.80;;
8092;SDS011;4089;52.420;13.334;2023-08-20T06:38:30;40.07;;;11.83;;
8092;SDS011;4089;52.420;13.334;2023-08-20T06:40:56;44.13;;;12.47;;
8092;SDS011;4089;52.420;13.334;2023-08-20T06:43:23;42.87;;;12.97;;
8092;SDS011;4089;52.420;13.334;2023-08-20T06:45:50;42.07;;;13.00;;
8092;SDS011;4089;52.420;13.334;2023-08-20T06:48:18;44.40;;;13.03;;
8092;SDS011;4089;52.420;13.334;2023-08-20T06:50:48;42.80;;;13.60;;
8092;SDS011;4089;52.420;13.334;2023-08-20T06:53:15;39.80;;;12.73;;
8092;SDS011;4089;52.420;13.334;2023-08-20T06:55:42;41.23;;;12.93;;
8092;SDS011;4089;52.420;13.334;2023-08-20T06:58:09;42.43;;;14.00;;
8092;SDS011;4089;52.420;13.334;2023-08-20T07:00:36;43.23;;;13.77;;
8092;SDS011;4089;52.420;13.334;2023-08-20T07:03:03;41.57;;;13.17;;
8092;SDS011;4089;52.420;13.334;2023-08-20T07:05:30;48.83;;;13.43;;
8092;SDS011;4089;52.420;13.334;2023-08-20T07:07:57;45.23;;;15.33;;
8092;SDS011;4089;52.420;13.334;2023-08-20T07:10:24;45.17;;;15.27;;
8092;SDS011;4089;52.420;13.334;2023-08-20T07:12:51;43.40;;;15.27;;
8092;SDS011;4089;52.420;13.334;2023-08-20T07:15:18;46.33;;;15.67;;
8092;SDS011;4089;52.420;13.334;2023-08-20T07:17:44;44.70;;;13.40;;
8092;SDS011;4089;52.420;13.334;2023-08-20T07:20:11;47.20;;;14.37;;
8092;SDS011;4089;52.420;13.334;2023-08-20T07:22:40;41.97;;;12.93;;
8092;SDS011;4089;52.420;13.334;2023-08-20T07:25:08;40.83;;;12.40;;
8092;SDS011;4089;52.420;13.334;2023-08-20T07:27:35;40.57;;;11.80;;
8092;SDS011;4089;52.420;13.334;2023-08-20T07:30:03;41.23;;;12.20;;
8092;SDS011;4089;52.420;13.334;2023-08-20T07:32:30;36.80;;;10.40;;
8092;SDS011;4089;52.420;13.334;2023-08-20T07:34:57;35.97;;;9.47;;
8092;SDS011;4089;52.420;13.334;2023-08-20T07:37:23;36.40;;;9.47;;
8092;SDS011;4089;52.420;13.334;2023-08-20T07:39:50;35.37;;;8.70;;
8092;SDS011;4089;52.420;13.334;2023-08-20T07:42:17;32.97;;;8.60;;
8092;SDS011;4089;52.420;13.334;2023-08-20T07:44:44;34.87;;;8.80;;
8092;SDS011;4089;52.420;13.334;2023-08-20T07:47:11;33.63;;;7.60;;
8092;SDS011;4089;52.420;13.334;2023-08-20T07:49:38;32.57;;;7.87;;
8092;SDS011;4089;52.420;13.334;2023-08-20T07:52:05;31.67;;;7.70;;
8092;SDS011;4089;52.420;13.334;2023-08-20T07:54:32;36.60;;;7.27;;
8092;SDS011;4089;52.420;13.334;2023-08-20T07:56:59;28.57;;;5.80;;
8092;SDS011;4089;52.420;13.334;2023-08-20T07:59:26;30.73;;;5.97;;
8092;SDS011;4089;52.420;13.334;2023-08-20T08:01:52;32.10;;;5.73;;
8092;SDS011;4089;52.420;13.334;2023-08-20T08:04:19;30.10;;;5.30;;
8092;SDS011;4089;52.420;13.334;2023-08-20T08:06:46;29.33;;;5.57;;
8092;SDS011;4089;52.420;13.334;2023-08-20T08:09:18;31.83;;;5.50;;
8092;SDS011;4089;52.420;13.334;2023-08-20T08:11:53;30.67;;;5.57;;
8092;SDS011;4089;52.420;13.334;2023-08-20T08:14:20;30.40;;;4.77;;
8092;SDS011;4089;52.420;13.334;2023-08-20T08:16:47;33.73;;;5.60;;
8092;SDS011;4089;52.420;13.334;2023-08-20T08:19:14;29.97;;;5.10;;
8092;SDS011;4089;52.420;13.334;2023-08-20T08:21:42;29.70;;;5.53;;
8092;SDS011;4089;52.420;13.334;2023-08-20T08:24:10;29.70;;;6.30;;
8092;SDS011;4089;52.420;13.334;2023-08-20T08:26:37;31.70;;;6.27;;
8092;SDS011;4089;52.420;13.334;2023-08-20T08:29:05;28.87;;;5.67;;
8092;SDS011;4089;52.420;13.334;2023-08-20T08:31:33;31.13;;;5.30;;
8092;SDS011;4089;52.420;13.334;2023-08-20T08:34:01;28.80;;;4.83;;
8092;SDS011;4089;52.420;13.334;2023-08-20T08:36:29;28.47;;;5.27;;
8092;SDS011;4089;52.420;13.334;2023-08-20T08:38:56;30.03;;;5.47;;
8092;SDS011;4089;52.420;13.334;2023-08-20T08:41:23;29.80;;;4.50;;
8092;SDS011;4089;52.420;13.334;2023-08-20T08:43:53;28.13;;;4.20;;
8092;SDS011;4089;52.420;13.334;2023-08-20T08:46:21;29.10;;;4.00;;
8092;SDS011;4089;52.420;13.334;2023-08-20T08:48:49;27.87;;;4.13;;
8092;SDS011;4089;52.420;13.334;2023-08-20T08:51:16;34.43;;;4.03;;
8092;SDS011;4089;52.420;13.334;2023-08-20T08:53:43;28.60;;;3.90;;
8092;SDS011;4089;52.420;13.334;2023-08-20T08:56:10;29.10;;;4.00;;
8092;SDS011;4089;52.420;13.334;2023-08-20T08:58:37;28.80;;;3.00;;
8092;SDS011;4089;52.420;13.334;2023-08-20T09:01:04;26.37;;;2.90;;
8092;SDS011;4089;52.420;13.334;2023-08-20T09:03:31;27.77;;;3.17;;
8092;SDS011;4089;52.420;13.334;2023-08-20T09:05:59;27.60;;;2.90;;
8092;SDS011;4089;52.420;13.334;2023-08-20T09:08:30;34.73;;;3.10;;
8092;SDS011;4089;52.420;13.334;2023-08-20T09:10:58;28.90;;;2.73;;
8092;SDS011;4089;52.420;13.334;2023-08-20T09:13:32;33.40;;;3.23;;
8092;SDS011;4089;52.420;13.334;2023-08-20T09:16:06;27.90;;;3.20;;
8092;SDS011;4089;52.420;13.334;2023-08-20T09:18:46;26.60;;;2.93;;
8092;SDS011;4089;52.420;13.334;2023-08-20T09:21:13;29.47;;;3.20;;
8092;SDS011;4089;52.420;13.334;2023-08-20T09:23:40;27.23;;;2.63;;
8092;SDS011;4089;52.420;13.334;2023-08-20T09:26:12;27.57;;;3.10;;
8092;SDS011;4089;52.420;13.334;2023-08-20T09:28:40;28.93;;;3.23;;
8092;SDS011;4089;52.420;13.334;2023-08-20T09:31:09;27.10;;;2.83;;
8092;SDS011;4089;52.420;13.334;2023-08-20T09:33:37;28.53;;;3.30;;
8092;SDS011;4089;52.420;13.334;2023-08-20T09:36:16;26.90;;;3.23;;
8092;SDS011;4089;52.420;13.334;2023-08-20T09:38:43;27.40;;;3.20;;
8092;SDS011;4089;52.420;13.334;2023-08-20T09:41:10;28.00;;;3.43;;
8092;SDS011;4089;52.420;13.334;2023-08-20T09:43:38;27.37;;;3.50;;
8092;SDS011;4089;52.420;13.334;2023-08-20T09:46:05;28.73;;;3.27;;
8092;SDS011;4089;52.420;13.334;2023-08-20T09:48:36;28.00;;;3.60;;
8092;SDS011;4089;52.420;13.334;2023-08-20T09:51:10;30.00;;;3.27;;
8092;SDS011;4089;52.420;13.334;2023-08-20T09:53:39;29.40;;;3.03;;
8092;SDS011;4089;52.420;13.334;2023-08-20T09:56:15;42.87;;;3.70;;
8092;SDS011;4089;52.420;13.334;2023-08-20T09:59:09;33.00;;;3.60;;
8092;SDS011;4089;52.420;13.334;2023-08-20T10:01:37;30.00;;;3.40;;
8092;SDS011;4089;52.420;13.334;2023-08-20T10:04:05;31.30;;;3.97;;
8092;SDS011;4089;52.420;13.334;2023-08-20T10:06:32;29.33;;;3.50;;
8092;SDS011;4089;52.420;13.334;2023-08-20T10:09:00;27.70;;;3.10;;
8092;SDS011;4089;52.420;13.334;2023-08-20T10:11:28;28.10;;;3.00;;
8092;SDS011;4089;52.420;13.334;2023-08-20T10:13:55;27.33;;;3.20;;
8092;SDS011;4089;52.420;13.334;2023-08-20T10:16:22;32.93;;;3.07;;
8092;SDS011;4089;52.420;13.334;2023-08-20T10:18:53;28.60;;;3.47;;
8092;SDS011;4089;52.420;13.334;2023-08-20T10:21:24;28.33;;;3.30;;
8092;SDS011;4089;52.420;13.334;2023-08-20T10:23:51;27.50;;;2.77;;
8092;SDS011;4089;52.420;13.334;2023-08-20T10:26:19;29.77;;;3.10;;
8092;SDS011;4089;52.420;13.334;2023-08-20T10:28:48;27.53;;;2.93;;
8092;SDS011;4089;52.420;13.334;2023-08-20T10:31:16;27.83;;;2.40;;
8092;SDS011;4089;52.420;13.334;2023-08-20T10:36:14;27.30;;;2.93;;
8092;SDS011;4089;52.420;13.334;2023-08-20T10:38:49;26.73;;;2.93;;
8092;SDS011;4089;52.420;13.334;2023-08-20T10:41:16;27.27;;;2.93;;
8092;SDS011;4089;52.420;13.334;2023-08-20T10:43:51;30.17;;;3.20;;
8092;SDS011;4089;52.420;13.334;2023-08-20T10:46:19;28.97;;;3.67;;
8092;SDS011;4089;52.420;13.334;2023-08-20T10:51:24;31.10;;;4.00;;
8092;SDS011;4089;52.420;13.334;2023-08-20T10:56:37;28.77;;;3.33;;
8092;SDS011;4089;52.420;13.334;2023-08-20T10:59:47;28.97;;;3.20;;
8092;SDS011;4089;52.420;13.334;2023-08-20T11:02:09;29.90;;;3.10;;
8092;SDS011;4089;52.420;13.334;2023-08-20T11:04:41;29.07;;;3.37;;
8092;SDS011;4089;52.420;13.334;2023-08-20T11:07:08;28.30;;;2.67;;
8092;SDS011;4089;52.420;13.334;2023-08-20T11:09:35;29.60;;;3.10;;
8092;SDS011;4089;52.420;13.334;2023-08-20T11:12:05;29.90;;;3.33;;
8092;SDS011;4089;52.420;13.334;2023-08-20T11:14:34;30.23;;;3.07;;
8092;SDS011;4089;52.420;13.334;2023-08-20T11:17:01;29.80;;;2.87;;
8092;SDS011;4089;52.420;13.334;2023-08-20T11:19:28;28.50;;;3.10;;
8092;SDS011;4089;52.420;13.334;2023-08-20T11:21:55;27.17;;;2.73;;
8092;SDS011;4089;52.420;13.334;2023-08-20T11:24:23;28.20;;;2.93;;
8092;SDS011;4089;52.420;13.334;2023-08-20T11:26:49;28.40;;;2.97;;
8092;SDS011;4089;52.420;13.334;2023-08-20T11:29:17;28.00;;;3.10;;
8092;SDS011;4089;52.420;13.334;2023-08-20T11:31:48;28.30;;;3.10;;
8092;SDS011;4089;52.420;13.334;2023-08-20T11:34:15;27.90;;;2.80;;
8092;SDS011;4089;52.420;13.334;2023-08-20T11:36:44;31.00;;;3.00;;
8092;SDS011;4089;52.420;13.334;2023-08-20T11:39:11;28.57;;;2.90;;
8092;SDS011;4089;52.420;13.334;2023-08-20T11:41:39;29.90;;;2.73;;
8092;SDS011;4089;52.420;13.334;2023-08-20T11:44:09;28.80;;;2.47;;
8092;SDS011;4089;52.420;13.334;2023-08-20T11:46:43;29.10;;;2.87;;
8092;SDS011;4089;52.420;13.334;2023-08-20T11:49:12;29.00;;;2.87;;
8092;SDS011;4089;52.420;13.334;2023-08-20T11:51:57;29.03;;;2.47;;
8092;SDS011;4089;52.420;13.334;2023-08-20T11:54:24;28.83;;;2.97;;
8092;SDS011;4089;52.420;13.334;2023-08-20T11:56:52;28.60;;;3.30;;
8092;SDS011;4089;52.420;13.334;2023-08-20T11:59:28;29.63;;;2.80;;
8092;SDS011;4089;52.420;13.334;2023-08-20T12:01:56;29.63;;;3.17;;
8092;SDS011;4089;52.420;13.334;2023-08-20T12:04:24;29.80;;;3.03;;
8092;SDS011;4089;52.420;13.334;2023-08-20T12:07:05;30.80;;;3.10;;
8092;SDS011;4089;52.420;13.334;2023-08-20T12:09:36;37.60;;;3.00;;
8092;SDS011;4089;52.420;13.334;2023-08-20T12:12:04;28.40;;;2.93;;
8092;SDS011;4089;52.420;13.334;2023-08-20T12:14:33;28.33;;;2.77;;
8092;SDS011;4089;52.420;13.334;2023-08-20T12:17:00;30.90;;;2.90;;
8092;SDS011;4089;52.420;13.334;2023-08-20T12:19:27;29.83;;;2.20;;
8092;SDS011;4089;52.420;13.334;2023-08-20T12:21:53;28.37;;;2.53;;
8092;SDS011;4089;52.420;13.334;2023-08-20T12:24:20;28.23;;;2.60;;
8092;SDS011;4089;52.420;13.334;2023-08-20T12:26:47;29.50;;;2.63;;
8092;SDS011;4089;52.420;13.334;2023-08-20T12:29:14;30.07;;;2.47;;
8092;SDS011;4089;52.420;13.334;2023-08-20T12:31:42;28.00;;;2.20;;
8092;SDS011;4089;52.420;13.334;2023-08-20T12:34:09;28.47;;;2.77;;
8092;SDS011;4089;52.420;13.334;2023-08-20T12:36:36;26.93;;;2.10;;
8092;SDS011;4089;52.420;13.334;2023-08-20T12:39:03;27.90;;;1.80;;
8092;SDS011;4089;52.420;13.334;2023-08-20T12:41:31;29.30;;;2.90;;
8092;SDS011;4089;52.420;13.334;2023-08-20T12:43:58;30.77;;;2.43;;
8092;SDS011;4089;52.420;13.334;2023-08-20T12:46:25;28.40;;;2.30;;
8092;SDS011;4089;52.420;13.334;2023-08-20T12:48:52;28.90;;;2.27;;
8092;SDS011;4089;52.420;13.334;2023-08-20T12:51:18;26.70;;;2.03;;
8092;SDS011;4089;52.420;13.334;2023-08-20T12:53:46;28.43;;;2.50;;
8092;SDS011;4089;52.420;13.334;2023-08-20T12:56:12;28.17;;;2.33;;
8092;SDS011;4089;52.420;13.334;2023-08-20T12:58:40;28.30;;;2.20;;
8092;SDS011;4089;52.420;13.334;2023-08-20T13:01:07;27.90;;;2.53;;
8092;SDS011;4089;52.420;13.334;2023-08-20T13:03:34;28.37;;;1.67;;
8092;SDS011;4089;52.420;13.334;2023-08-20T13:06:01;28.10;;;2.23;;
8092;SDS011;4089;52.420;13.334;2023-08-20T13:08:28;29.00;;;1.90;;
8092;SDS011;4089;52.420;13.334;2023-08-20T13:10:57;26.47;;;1.57;;
8092;SDS011;4089;52.420;13.334;2023-08-20T13:13:24;26.83;;;1.50;;
8092;SDS011;4089;52.420;13.334;2023-08-20T13:15:51;28.83;;;1.87;;
8092;SDS011;4089;52.420;13.334;2023-08-20T13:18:20;27.63;;;1.80;;
8092;SDS011;4089;52.420;13.334;2023-08-20T13:20:52;29.97;;;1.80;;
8092;SDS011;4089;52.420;13.334;2023-08-20T13:23:19;27.77;;;1.47;;
8092;SDS011;4089;52.420;13.334;2023-08-20T13:25:46;27.10;;;1.60;;
8092;SDS011;4089;52.420;13.334;2023-08-20T13:28:13;30.10;;;1.70;;
8092;SDS011;4089;52.420;13.334;2023-08-20T13:30:40;27.10;;;1.47;;
8092;SDS011;4089;52.420;13.334;2023-08-20T13:33:07;27.27;;;1.70;;
8092;SDS011;4089;52.420;13.334;2023-08-20T13:35:34;35.10;;;1.80;;
8092;SDS011;4089;52.420;13.334;2023-08-20T13:38:01;29.00;;;1.63;;
8092;SDS011;4089;52.420;13.334;2023-08-20T13:40:29;30.47;;;1.73;;
8092;SDS011;4089;52.420;13.334;2023-08-20T13:42:55;28.37;;;2.00;;
8092;SDS011;4089;52.420;13.334;2023-08-20T13:45:22;28.30;;;1.53;;
8092;SDS011;4089;52.420;13.334;2023-08-20T13:47:49;28.10;;;1.67;;
8092;SDS011;4089;52.420;13.334;2023-08-20T13:50:16;28.90;;;1.70;;
8092;SDS011;4089;52.420;13.334;2023-08-20T13:52:43;27.67;;;1.63;;
8092;SDS011;4089;52.420;13.334;2023-08-20T13:55:09;29.23;;;1.60;;
8092;SDS011;4089;52.420;13.334;2023-08-20T13:57:36;31.10;;;2.13;;
8092;SDS011;4089;52.420;13.334;2023-08-20T14:00:04;29.50;;;1.60;;
8092;SDS011;4089;52.420;13.334;2023-08-20T14:02:38;28.40;;;1.70;;
8092;SDS011;4089;52.420;13.334;2023-08-20T14:05:06;27.60;;;1.20;;
8092;SDS011;4089;52.420;13.334;2023-08-20T14:07:35;29.63;;;1.73;;
8092;SDS011;4089;52.420;13.334;2023-08-20T14:10:02;28.00;;;1.90;;
8092;SDS011;4089;52.420;13.334;2023-08-20T14:12:33;29.67;;;2.00;;
8092;SDS011;4089;52.420;13.334;2023-08-20T14:15:03;29.73;;;2.17;;
8092;SDS011;4089;52.420;13.334;2023-08-20T14:17:30;28.77;;;2.40;;
8092;SDS011;4089;52.420;13.334;2023-08-20T14:19:57;28.83;;;1.70;;
8092;SDS011;4089;52.420;13.334;2023-08-20T14:22:24;28.40;;;2.00;;
8092;SDS011;4089;52.420;13.334;2023-08-20T14:24:51;28.77;;;1.63;;
8092;SDS011;4089;52.420;13.334;2023-08-20T14:27:18;33.70;;;2.10;;
8092;SDS011;4089;52.420;13.334;2023-08-20T14:29:45;29.50;;;2.00;;
8092;SDS011;4089;52.420;13.334;2023-08-20T14:32:12;29.13;;;1.60;;
8092;SDS011;4089;52.420;13.334;2023-08-20T14:34:39;29.80;;;1.90;;
8092;SDS011;4089;52.420;13.334;2023-08-20T14:37:06;29.97;;;1.97;;
8092;SDS011;4089;52.420;13.334;2023-08-20T14:39:32;29.93;;;1.70;;
8092;SDS011;4089;52.420;13.334;2023-08-20T14:41:59;28.17;;;1.63;;
8092;SDS011;4089;52.420;13.334;2023-08-20T14:44:27;33.50;;;1.90;;
8092;SDS011;4089;52.420;13.334;2023-08-20T14:46:53;28.70;;;1.83;;
8092;SDS011;4089;52.420;13.334;2023-08-20T14:49:20;28.97;;;1.47;;
8092;SDS011;4089;52.420;13.334;2023-08-20T14:51:48;32.67;;;1.57;;
8092;SDS011;4089;52.420;13.334;2023-08-20T14:54:15;28.93;;;1.60;;
8092;SDS011;4089;52.420;13.334;2023-08-20T14:56:42;31.17;;;1.53;;
8092;SDS011;4089;52.420;13.334;2023-08-20T14:59:08;28.90;;;1.37;;
8092;SDS011;4089;52.420;13.334;2023-08-20T15:01:36;28.00;;;1.40;;